KACT/ACT METAR and TAF weather

Enter ICAO airport designator
Station Type Date Time Source
KACT METAR 2018/12/13 14:51 UTC NOAA

KACT 131451Z 17006KT 5SM BR FEW030 FEW090 16/15 A2971 RMK AO2 SLP057 T01610150 53007 $


Station Type Date Time Source
KACT Decoded METAR 2018/12/13 14:51 UTC NOAA

WACO REGIONAL AIRPORT, TX, United States (KACT) 31-36N 97-13W 151M
Dec 13, 2018 - 09:51 AM EST / 2018.12.13 1451 UTC
Wind: from the S (170 degrees) at 7 MPH (6 KT):0
Visibility: 5 mile(s):0
Sky conditions: mostly clear
Weather: mist
Temperature: 61.0 F (16.1 C)
Dew Point: 59.0 F (15.0 C)
Relative Humidity: 93%
Pressure (altimeter): 29.71 in. Hg (1006 hPa)
Pressure tendency: 0.02 inches (0.7 hPa) higher than three hours ago
ob: KACT 131451Z 17006KT 5SM BR FEW030 FEW090 16/15 A2971 RMK AO2 SLP057 T01610150 53007
cycle: 15

Station Type Date Time Source
KACT TAF 2018/12/13 15:12 UTC NOAA

TAF
AMD KACT 131510Z 1315/1412 16010KT P6SM SCT025
FM131700 18012KT P6SM VCSH SCT025 BKN070
FM131900 26014KT P6SM SCT025 BKN035
FM132200 28015G25KT P6SM VCSH BKN025
FM140300 33020G32KT 5SM -SHRA BR OVC015


Example: see airport list